Time;durP1;ratioP1;P1;durP2;ratioP2;P2;SDS_P1;SDS_P2;PMS_P1;PMS_P2;Temp;Humidity;BMP_temperature;BMP_pressure;BME280_temperature;BME280_humidity;BME280_pressure;Samples;Min_cycle;Max_cycle;Signal;HPM_P1;HPM_P2
2024/02/16 00:01:58;;;;;;;5.82;2.28;;;12.60;92.20;;;;;;5090973;28;20476;-77
2024/02/16 00:04:23;;;;;;;7.32;2.13;;;12.60;92.20;;;;;;5094598;28;20024;-77
2024/02/16 00:06:49;;;;;;;5.93;2.05;;;12.60;92.20;;;;;;5094491;28;20065;-77
2024/02/16 00:09:14;;;;;;;5.78;1.95;;;12.60;92.10;;;;;;5094276;28;20043;-77
2024/02/16 00:11:40;;;;;;;4.72;1.70;;;12.60;92.10;;;;;;5094323;28;20038;-77
2024/02/16 00:14:06;;;;;;;4.78;1.80;;;12.60;92.10;;;;;;5092981;28;20040;-77
2024/02/16 00:16:31;;;;;;;5.15;1.92;;;12.50;92.10;;;;;;5093341;28;20016;-77
2024/02/16 00:18:57;;;;;;;6.68;1.85;;;12.60;92.20;;;;;;5093669;28;20032;-77
2024/02/16 00:21:22;;;;;;;4.50;1.73;;;12.60;92.10;;;;;;5092097;28;20061;-76
2024/02/16 00:23:48;;;;;;;6.47;2.28;;;12.60;92.20;;;;;;5092766;28;20093;-76
2024/02/16 00:26:13;;;;;;;5.70;2.20;;;12.60;92.10;;;;;;5092861;28;20051;-76
2024/02/16 00:28:38;;;;;;;5.57;2.25;;;12.60;92.10;;;;;;5093019;28;20035;-76
2024/02/16 00:31:05;;;;;;;4.65;1.50;;;12.60;92.10;;;;;;5091670;28;20028;-76
2024/02/16 00:33:30;;;;;;;5.63;2.10;;;12.60;92.10;;;;;;5091301;28;20028;-77
2024/02/16 00:35:56;;;;;;;6.03;1.92;;;12.50;92.10;;;;;;5091308;28;20027;-77
2024/02/16 00:38:23;;;;;;;5.53;2.13;;;12.60;92.10;;;;;;5091545;28;20064;-77
2024/02/16 00:40:48;;;;;;;4.93;1.77;;;12.60;92.10;;;;;;5091392;28;20028;-77
2024/02/16 00:43:15;;;;;;;4.45;1.80;;;12.60;92.10;;;;;;5092333;28;20518;-77
2024/02/16 00:45:44;;;;;;;5.10;1.70;;;12.60;92.10;;;;;;5092591;28;20031;-77
2024/02/16 00:48:09;;;;;;;5.22;1.80;;;12.60;92.10;;;;;;5091530;28;20024;-76
2024/02/16 00:50:35;;;;;;;4.65;1.63;;;12.60;92.10;;;;;;5091354;28;20140;-76
2024/02/16 00:53:00;;;;;;;4.03;1.60;;;12.50;92.00;;;;;;5092507;28;20111;-76
2024/02/16 00:55:26;;;;;;;4.45;1.70;;;12.60;92.10;;;;;;5090877;28;20031;-77
2024/02/16 00:57:51;;;;;;;4.63;1.88;;;12.60;92.10;;;;;;5091138;28;20028;-78
2024/02/16 01:00:19;;;;;;;4.93;1.80;;;12.60;92.10;;;;;;5091326;28;20107;-76
2024/02/16 01:02:44;;;;;;;4.53;1.85;;;12.60;92.10;;;;;;5091228;28;20408;-77
2024/02/16 01:05:10;;;;;;;3.90;1.58;;;12.60;92.10;;;;;;5091089;28;20024;-76
2024/02/16 01:07:36;;;;;;;5.10;1.60;;;12.60;92.30;;;;;;5091196;28;20111;-76
2024/02/16 01:10:03;;;;;;;4.43;1.50;;;12.60;92.00;;;;;;5092339;28;20083;-76
2024/02/16 01:12:30;;;;;;;5.68;1.90;;;12.60;92.00;;;;;;5090895;28;20138;-76
2024/02/16 01:14:56;;;;;;;6.13;1.75;;;12.60;92.10;;;;;;5092740;28;20028;-79
2024/02/16 01:17:21;;;;;;;3.38;1.40;;;12.60;92.10;;;;;;5093687;28;20035;-78
2024/02/16 01:19:47;;;;;;;5.30;1.70;;;12.60;92.00;;;;;;5091435;28;20047;-77
2024/02/16 01:22:13;;;;;;;4.20;1.60;;;12.60;92.10;;;;;;5091690;28;20028;-75
2024/02/16 01:24:39;;;;;;;4.32;1.55;;;12.60;92.00;;;;;;5090483;28;20024;-76
2024/02/16 01:27:04;;;;;;;4.50;1.80;;;12.60;92.10;;;;;;5090418;28;20020;-76
2024/02/16 01:29:30;;;;;;;4.50;1.55;;;12.50;92.00;;;;;;5091819;28;20484;-76
2024/02/16 01:31:55;;;;;;;4.85;1.77;;;12.60;92.00;;;;;;5090374;28;20028;-76
2024/02/16 01:34:21;;;;;;;5.53;1.50;;;12.50;92.00;;;;;;5090354;28;20024;-77
2024/02/16 01:36:46;;;;;;;4.57;1.65;;;12.50;92.00;;;;;;5091703;28;20024;-77
2024/02/16 01:39:11;;;;;;;4.13;1.60;;;12.60;92.00;;;;;;5104751;28;20480;-76
2024/02/16 01:41:40;;;;;;;4.05;1.70;;;12.60;92.00;;;;;;5111746;28;20028;-77
2024/02/16 01:44:06;;;;;;;4.43;1.80;;;12.60;92.00;;;;;;5110572;28;20035;-76
2024/02/16 01:46:33;;;;;;;5.10;1.70;;;12.60;92.00;;;;;;5110452;28;20081;-77
2024/02/16 01:48:59;;;;;;;3.40;1.45;;;12.50;92.00;;;;;;5111963;28;20019;-76
2024/02/16 01:51:25;;;;;;;4.43;1.58;;;12.50;92.00;;;;;;5111845;28;20027;-76
2024/02/16 01:53:52;;;;;;;5.32;1.83;;;12.60;92.00;;;;;;5109944;28;20415;-77
2024/02/16 01:56:20;;;;;;;4.60;1.55;;;12.60;92.00;;;;;;5111773;28;20030;-77
2024/02/16 01:58:46;;;;;;;4.60;1.60;;;12.60;92.10;;;;;;5110205;28;20019;-77
2024/02/16 02:01:12;;;;;;;3.83;1.48;;;12.60;92.10;;;;;;5111806;28;20464;-77
2024/02/16 02:03:37;;;;;;;5.13;1.90;;;12.60;92.10;;;;;;5111299;28;20027;-76
2024/02/16 02:06:03;;;;;;;4.63;1.83;;;12.50;92.00;;;;;;5110222;28;20024;-77
2024/02/16 02:08:28;;;;;;;3.83;1.42;;;12.60;92.00;;;;;;5111509;28;20036;-76
2024/02/16 02:10:54;;;;;;;6.63;2.47;;;12.50;92.00;;;;;;5110056;28;20077;-76
2024/02/16 02:13:21;;;;;;;3.45;1.50;;;12.50;92.00;;;;;;5111123;28;20024;-77
2024/02/16 02:15:47;;;;;;;2.92;1.30;;;12.50;92.00;;;;;;5111122;28;20039;-77
2024/02/16 02:18:13;;;;;;;5.25;1.63;;;12.50;92.00;;;;;;5111369;28;20024;-77
2024/02/16 02:20:38;;;;;;;3.35;1.45;;;12.60;92.10;;;;;;5110006;28;20053;-76
2024/02/16 02:23:04;;;;;;;4.63;1.58;;;12.50;92.00;;;;;;5109831;28;20027;-77
2024/02/16 02:25:29;;;;;;;4.90;1.67;;;12.60;92.10;;;;;;5109364;28;20027;-77
2024/02/16 02:27:55;;;;;;;4.43;1.60;;;12.50;92.00;;;;;;5109815;28;20439;-76
2024/02/16 02:30:21;;;;;;;3.47;1.58;;;12.50;92.00;;;;;;5109907;28;20023;-77
2024/02/16 02:32:48;;;;;;;3.80;1.30;;;12.60;92.10;;;;;;5110924;28;20510;-76
2024/02/16 02:35:15;;;;;;;4.35;1.40;;;12.60;92.10;;;;;;5111069;28;20034;-77
2024/02/16 02:37:40;;;;;;;4.00;1.60;;;12.50;92.00;;;;;;5109720;28;20483;-76
2024/02/16 02:40:08;;;;;;;4.25;1.58;;;12.50;92.00;;;;;;5111045;27;20041;-76
2024/02/16 02:42:34;;;;;;;3.25;1.42;;;12.60;92.10;;;;;;5109455;28;20032;-76
2024/02/16 02:44:59;;;;;;;3.58;1.60;;;12.50;92.00;;;;;;5110906;28;20442;-77
2024/02/16 02:47:25;;;;;;;3.95;1.30;;;12.50;92.00;;;;;;5110847;28;20039;-77
2024/02/16 02:49:50;;;;;;;3.58;1.33;;;12.50;92.00;;;;;;5111035;28;20069;-76
2024/02/16 02:52:17;;;;;;;3.90;1.30;;;12.50;92.00;;;;;;5109362;28;20027;-77
2024/02/16 02:54:42;;;;;;;3.88;1.60;;;12.50;92.00;;;;;;5109416;28;20024;-78
2024/02/16 02:57:08;;;;;;;4.10;1.38;;;12.50;92.00;;;;;;5110740;28;20034;-77
2024/02/16 02:59:33;;;;;;;4.38;1.55;;;12.50;92.00;;;;;;5109406;28;20030;-76
2024/02/16 03:01:59;;;;;;;3.50;1.27;;;12.60;92.00;;;;;;5110383;28;20077;-76
2024/02/16 03:04:24;;;;;;;4.32;1.58;;;12.50;92.00;;;;;;5109584;28;20024;-77
2024/02/16 03:06:53;;;;;;;4.30;1.50;;;12.40;92.00;;;;;;5109525;28;20035;-76
2024/02/16 03:09:18;;;;;;;4.38;1.45;;;12.50;92.00;;;;;;5106524;28;20027;-76
2024/02/16 03:11:44;;;;;;;4.50;1.40;;;12.50;92.00;;;;;;5110021;28;20034;-77
2024/02/16 03:14:09;;;;;;;3.67;1.25;;;12.50;92.00;;;;;;5095046;28;20035;-77
2024/02/16 03:16:35;;;;;;;1.98;1.15;;;12.50;92.00;;;;;;5090177;28;20469;-77
2024/02/16 03:19:00;;;;;;;3.80;1.40;;;12.50;92.00;;;;;;5089099;28;20020;-77
2024/02/16 03:21:27;;;;;;;3.33;1.48;;;12.50;92.00;;;;;;5087854;28;20036;-76
2024/02/16 03:23:52;;;;;;;4.05;1.40;;;12.50;92.00;;;;;;5089655;28;20117;-76
2024/02/16 03:26:20;;;;;;;3.22;1.23;;;12.50;92.00;;;;;;5090097;28;20504;-76
2024/02/16 03:28:49;;;;;;;4.47;1.60;;;12.50;92.00;;;;;;5090313;28;20024;-77
2024/02/16 03:31:22;;;;;;;3.58;1.38;;;12.50;92.00;;;;;;5090288;28;20016;-77
2024/02/16 03:33:49;;;;;;;3.65;1.40;;;12.50;92.00;;;;;;5090161;28;20020;-76
2024/02/16 03:36:16;;;;;;;3.70;1.33;;;12.50;92.00;;;;;;5090397;28;20016;-76
2024/02/16 03:38:42;;;;;;;3.70;1.23;;;12.50;92.00;;;;;;5093833;28;20400;-77
2024/02/16 03:41:12;;;;;;;2.78;1.30;;;12.50;92.00;;;;;;5092624;28;20480;-76
2024/02/16 03:43:37;;;;;;;2.53;1.30;;;12.50;92.00;;;;;;5093323;28;20039;-76
2024/02/16 03:46:03;;;;;;;3.08;1.30;;;12.50;92.00;;;;;;5092401;28;20028;-76
2024/02/16 03:48:29;;;;;;;3.38;1.33;;;12.50;92.00;;;;;;5092395;28;20028;-78
2024/02/16 03:50:54;;;;;;;3.17;1.20;;;12.50;92.00;;;;;;5092362;28;20027;-76
2024/02/16 03:53:20;;;;;;;2.35;1.20;;;12.50;92.00;;;;;;5091992;28;20024;-76
2024/02/16 03:55:45;;;;;;;2.72;1.13;;;12.50;92.00;;;;;;5093487;28;20032;-77
2024/02/16 03:58:11;;;;;;;5.70;1.50;;;12.50;92.00;;;;;;5092193;28;20094;-76
2024/02/16 04:00:36;;;;;;;2.83;1.13;;;12.50;92.00;;;;;;5092120;28;20032;-77
2024/02/16 04:03:02;;;;;;;3.40;1.10;;;12.50;91.90;;;;;;5093330;28;20488;-77
2024/02/16 04:05:32;;;;;;;2.65;1.05;;;12.50;92.00;;;;;;5091970;28;20067;-76
2024/02/16 04:08:01;;;;;;;3.10;1.30;;;12.50;92.00;;;;;;5093551;28;20016;-76
2024/02/16 04:10:28;;;;;;;3.40;1.30;;;12.50;91.90;;;;;;5093239;28;20024;-76
2024/02/16 04:12:53;;;;;;;2.92;1.30;;;12.50;91.90;;;;;;5091715;28;20388;-77
2024/02/16 04:15:19;;;;;;;2.88;1.20;;;12.50;92.00;;;;;;5092103;28;20035;-77
2024/02/16 04:17:44;;;;;;;3.53;1.35;;;12.50;92.00;;;;;;5104217;28;20024;-76
2024/02/16 04:20:11;;;;;;;3.33;1.40;;;12.50;91.90;;;;;;5093156;28;20517;-78
2024/02/16 04:22:37;;;;;;;2.60;1.17;;;12.50;91.90;;;;;;5092298;28;20829;-76
2024/02/16 04:25:04;;;;;;;2.85;1.15;;;12.50;91.90;;;;;;5106098;28;20024;-76
2024/02/16 04:27:30;;;;;;;2.95;1.30;;;12.50;91.90;;;;;;5109625;28;20168;-77
2024/02/16 04:29:55;;;;;;;2.60;1.25;;;12.50;91.90;;;;;;5113418;28;20558;-75
2024/02/16 04:32:21;;;;;;;2.85;1.25;;;12.50;91.90;;;;;;5111650;28;20028;-76
2024/02/16 04:34:46;;;;;;;2.28;1.10;;;12.50;91.90;;;;;;5111742;28;20024;-77
2024/02/16 04:37:13;;;;;;;3.95;1.40;;;12.50;91.90;;;;;;5113409;28;20031;-76
2024/02/16 04:39:38;;;;;;;3.20;1.20;;;12.50;91.90;;;;;;5113032;28;20496;-77
2024/02/16 04:42:04;;;;;;;2.50;1.10;;;12.50;91.90;;;;;;5112868;28;20027;-76
2024/02/16 04:44:29;;;;;;;2.63;0.98;;;12.50;91.90;;;;;;5112940;28;20031;-76
2024/02/16 04:46:55;;;;;;;3.22;1.40;;;12.50;91.90;;;;;;5111337;28;20402;-76
2024/02/16 04:49:21;;;;;;;3.22;1.30;;;12.50;91.90;;;;;;5111367;28;20023;-76
2024/02/16 04:51:47;;;;;;;4.32;1.50;;;12.50;91.90;;;;;;5107641;28;20048;-75
2024/02/16 04:54:13;;;;;;;2.67;1.27;;;12.50;91.90;;;;;;5107798;28;20536;-76
2024/02/16 04:56:39;;;;;;;2.50;1.20;;;12.50;91.90;;;;;;5111384;28;20438;-77
2024/02/16 04:59:05;;;;;;;2.75;1.10;;;12.50;91.90;;;;;;5112715;28;20495;-76
2024/02/16 05:01:31;;;;;;;3.15;1.00;;;12.50;91.90;;;;;;5111288;28;20031;-77
2024/02/16 05:04:01;;;;;;;2.65;1.30;;;12.50;91.90;;;;;;5111660;28;20451;-76
2024/02/16 05:06:27;;;;;;;4.03;1.17;;;12.50;91.90;;;;;;5112742;28;20015;-75
2024/02/16 05:08:52;;;;;;;2.72;1.02;;;12.50;91.90;;;;;;5104569;28;20020;-77
2024/02/16 05:11:18;;;;;;;3.28;1.23;;;12.50;91.90;;;;;;5099778;28;20042;-77
2024/02/16 05:13:44;;;;;;;3.00;1.02;;;12.50;91.90;;;;;;5090031;28;20024;-76
2024/02/16 05:16:11;;;;;;;3.22;1.40;;;12.50;91.90;;;;;;5093222;28;20024;-77
2024/02/16 05:18:36;;;;;;;2.60;1.23;;;12.50;91.90;;;;;;5104300;28;20024;-77
2024/02/16 05:21:02;;;;;;;3.60;1.23;;;12.50;91.90;;;;;;5105638;28;20089;-76
2024/02/16 05:23:27;;;;;;;3.05;1.30;;;12.50;91.90;;;;;;5100325;28;20068;-77
2024/02/16 05:25:54;;;;;;;2.85;1.23;;;12.50;91.80;;;;;;5094555;28;20032;-76
2024/02/16 05:28:20;;;;;;;2.38;1.20;;;12.50;91.90;;;;;;5094165;28;20024;-76
2024/02/16 05:30:45;;;;;;;2.95;1.20;;;12.50;91.90;;;;;;5089079;28;20637;-77
2024/02/16 05:33:11;;;;;;;3.15;1.30;;;12.50;91.90;;;;;;5087355;28;20873;-76
2024/02/16 05:35:39;;;;;;;3.47;1.33;;;12.50;91.80;;;;;;5088313;28;20054;-77
2024/02/16 05:38:20;;;;;;;3.45;1.48;;;12.50;91.90;;;;;;5087564;28;20435;-77
2024/02/16 05:40:53;;;;;;;2.22;1.10;;;12.50;91.80;;;;;;5085063;28;20038;-75
2024/02/16 05:43:20;;;;;;;3.22;1.38;;;12.50;91.70;;;;;;5087082;28;20125;-77
2024/02/16 05:45:46;;;;;;;2.95;1.20;;;12.50;91.70;;;;;;5102854;28;20032;-77
2024/02/16 05:48:11;;;;;;;3.45;1.38;;;12.50;91.80;;;;;;5085965;28;20132;-77
2024/02/16 05:50:37;;;;;;;3.38;1.30;;;12.50;91.80;;;;;;5087961;28;20521;-78
2024/02/16 05:53:03;;;;;;;3.05;1.25;;;12.50;91.70;;;;;;5088071;28;20392;-77
2024/02/16 05:55:29;;;;;;;2.42;1.35;;;12.50;91.80;;;;;;5088000;28;20028;-78
2024/02/16 05:57:54;;;;;;;2.53;1.10;;;12.50;91.80;;;;;;5088790;28;20032;-77
2024/02/16 06:00:21;;;;;;;2.47;1.10;;;12.50;91.80;;;;;;5085155;28;20032;-78
2024/02/16 06:02:47;;;;;;;3.15;1.20;;;12.50;91.80;;;;;;5085994;28;20028;-77
2024/02/16 06:05:13;;;;;;;2.85;1.10;;;12.40;91.80;;;;;;5085272;28;20085;-77
2024/02/16 06:07:38;;;;;;;4.15;1.35;;;12.50;91.80;;;;;;5086726;28;20422;-77
2024/02/16 06:10:07;;;;;;;4.70;1.40;;;12.50;91.80;;;;;;5084904;28;20426;-79
2024/02/16 06:12:33;;;;;;;2.00;1.10;;;12.50;91.80;;;;;;5085114;28;20050;-79
2024/02/16 06:14:59;;;;;;;3.78;1.38;;;12.50;91.80;;;;;;5105592;28;20027;-77
2024/02/16 06:17:24;;;;;;;2.67;1.02;;;12.50;91.80;;;;;;5108341;28;20027;-78
2024/02/16 06:19:50;;;;;;;2.22;1.00;;;12.50;91.80;;;;;;5107204;28;20557;-77
2024/02/16 06:22:16;;;;;;;1.95;0.95;;;12.50;91.80;;;;;;5107910;28;20063;-78
2024/02/16 06:24:42;;;;;;;2.30;1.10;;;12.50;91.80;;;;;;5108923;28;20062;-77
2024/02/16 06:27:10;;;;;;;2.33;1.02;;;12.50;91.80;;;;;;5091335;28;20032;-77
2024/02/16 06:29:36;;;;;;;4.45;1.27;;;12.50;91.80;;;;;;5086610;28;20028;-79
2024/02/16 06:32:04;;;;;;;2.28;1.20;;;12.50;91.80;;;;;;5086640;28;20028;-79
2024/02/16 06:34:31;;;;;;;3.58;1.35;;;12.50;91.80;;;;;;5085471;28;20028;-78
2024/02/16 06:36:57;;;;;;;3.17;1.20;;;12.50;91.80;;;;;;5086989;28;20030;-79
2024/02/16 06:39:22;;;;;;;2.90;1.15;;;12.50;91.80;;;;;;5102487;28;20024;-78
2024/02/16 06:41:51;;;;;;;2.78;0.98;;;12.50;91.80;;;;;;5096623;28;20034;-78
2024/02/16 06:44:17;;;;;;;3.25;1.40;;;12.50;91.70;;;;;;5108321;28;20059;-76
2024/02/16 06:46:43;;;;;;;3.42;1.27;;;12.50;91.70;;;;;;5107572;28;20395;-77
2024/02/16 06:49:09;;;;;;;3.20;1.30;;;12.50;91.70;;;;;;5108669;28;20019;-78
2024/02/16 06:51:36;;;;;;;2.00;1.00;;;12.50;91.70;;;;;;5113430;28;20034;-77
2024/02/16 06:54:01;;;;;;;2.70;1.20;;;12.50;91.80;;;;;;5112539;28;20051;-75
2024/02/16 06:56:27;;;;;;;2.75;1.20;;;12.50;91.80;;;;;;5112436;28;20062;-78
2024/02/16 06:58:53;;;;;;;2.45;0.93;;;12.50;91.80;;;;;;5113278;28;20023;-77
2024/02/16 07:01:19;;;;;;;2.42;1.20;;;12.50;91.80;;;;;;5114943;28;20433;-80
2024/02/16 07:03:44;;;;;;;2.40;1.10;;;12.50;91.80;;;;;;5113619;28;20024;-78
2024/02/16 07:06:13;;;;;;;2.33;1.00;;;12.50;91.80;;;;;;5111644;28;20024;-75
2024/02/16 07:08:42;;;;;;;2.72;1.27;;;12.50;91.80;;;;;;5112358;28;20024;-77
2024/02/16 07:11:11;;;;;;;2.80;1.15;;;12.50;91.80;;;;;;5116630;28;20033;-77
2024/02/16 07:13:37;;;;;;;2.38;1.10;;;12.50;91.80;;;;;;5115183;28;20032;-78
2024/02/16 07:16:03;;;;;;;2.13;1.23;;;12.50;91.80;;;;;;5114709;28;20392;-76
2024/02/16 07:18:30;;;;;;;2.33;1.08;;;12.50;91.70;;;;;;5115216;28;20076;-78
2024/02/16 07:20:55;;;;;;;2.20;1.10;;;12.50;91.70;;;;;;5115515;28;20068;-76
2024/02/16 07:23:21;;;;;;;3.45;1.20;;;12.50;91.70;;;;;;5115009;28;20488;-76
2024/02/16 07:25:48;;;;;;;2.65;1.00;;;12.60;91.70;;;;;;5116516;28;20038;-76
2024/02/16 07:28:14;;;;;;;2.75;1.27;;;12.60;91.70;;;;;;5114561;28;20038;-77
2024/02/16 07:30:39;;;;;;;3.08;1.10;;;12.60;91.70;;;;;;5115644;28;20023;-77
2024/02/16 07:33:07;;;;;;;3.15;1.20;;;12.60;91.70;;;;;;5114237;28;20028;-78
2024/02/16 07:35:35;;;;;;;3.40;1.35;;;12.60;91.90;;;;;;5114574;28;20459;-78
2024/02/16 07:38:01;;;;;;;2.40;1.15;;;12.60;91.60;;;;;;5115674;28;20053;-77
2024/02/16 07:40:27;;;;;;;2.08;1.05;;;12.60;91.60;;;;;;5117261;28;20530;-77
2024/02/16 07:42:53;;;;;;;2.10;1.00;;;12.60;91.60;;;;;;5115715;28;20023;-77
2024/02/16 07:45:18;;;;;;;1.70;0.90;;;12.60;91.60;;;;;;5115303;28;20027;-77
2024/02/16 07:47:44;;;;;;;1.98;0.90;;;12.60;91.60;;;;;;5115732;28;20024;-78
2024/02/16 07:50:09;;;;;;;2.72;1.10;;;12.60;91.50;;;;;;5115268;28;20088;-79
2024/02/16 07:52:36;;;;;;;2.28;1.23;;;12.60;91.50;;;;;;5116881;28;20031;-78
2024/02/16 07:55:02;;;;;;;1.80;1.10;;;12.70;91.50;;;;;;5116992;28;20410;-77
2024/02/16 07:57:27;;;;;;;3.40;1.15;;;12.70;91.60;;;;;;5116914;28;20020;-79
2024/02/16 07:59:53;;;;;;;1.58;0.90;;;12.60;91.50;;;;;;5115299;28;20027;-78
2024/02/16 08:02:19;;;;;;;2.35;1.10;;;12.60;91.50;;;;;;5115331;28;20111;-76
2024/02/16 08:04:51;;;;;;;2.67;1.02;;;12.60;91.50;;;;;;5115277;28;20030;-78
2024/02/16 08:07:17;;;;;;;2.53;1.13;;;12.60;91.50;;;;;;5114786;28;20695;-77
2024/02/16 08:09:46;;;;;;;2.42;1.20;;;12.60;91.50;;;;;;5114776;27;20078;-77
2024/02/16 08:12:12;;;;;;;2.13;1.02;;;12.60;91.60;;;;;;5114340;28;20042;-78
2024/02/16 08:14:42;;;;;;;1.92;1.00;;;12.70;91.60;;;;;;5114371;28;20034;-76
2024/02/16 08:17:08;;;;;;;1.77;1.00;;;12.70;91.60;;;;;;5113091;28;20027;-78
2024/02/16 08:19:35;;;;;;;2.30;1.10;;;12.60;91.60;;;;;;5112894;28;20403;-78
2024/02/16 08:22:03;;;;;;;1.65;1.00;;;12.60;91.60;;;;;;5113204;28;20055;-78
2024/02/16 08:24:28;;;;;;;1.80;0.90;;;12.60;91.60;;;;;;5113339;28;20043;-76
2024/02/16 08:26:54;;;;;;;2.70;1.23;;;12.60;91.60;;;;;;5113295;28;20027;-77
2024/02/16 08:29:20;;;;;;;1.90;0.98;;;12.60;91.60;;;;;;5113194;28;20130;-77
2024/02/16 08:31:47;;;;;;;2.50;1.20;;;12.60;91.50;;;;;;5113444;28;20045;-77
2024/02/16 08:34:14;;;;;;;3.80;1.20;;;12.60;91.50;;;;;;5112764;28;20122;-77
2024/02/16 08:36:44;;;;;;;3.42;1.10;;;12.70;91.60;;;;;;5114243;28;20023;-77
2024/02/16 08:39:11;;;;;;;2.80;1.15;;;12.60;91.50;;;;;;5114789;28;20028;-77
2024/02/16 08:41:37;;;;;;;1.35;0.90;;;12.70;91.60;;;;;;5112419;28;20156;-78
2024/02/16 08:44:03;;;;;;;2.47;1.00;;;12.70;91.50;;;;;;5112810;28;20756;-77
2024/02/16 08:46:29;;;;;;;2.05;1.00;;;12.70;91.50;;;;;;5114275;28;20027;-77
2024/02/16 08:48:55;;;;;;;2.28;0.90;;;12.70;91.60;;;;;;5114176;28;20012;-76
2024/02/16 08:51:20;;;;;;;1.90;0.95;;;12.60;91.50;;;;;;5110751;28;20156;-78
2024/02/16 08:53:46;;;;;;;2.58;1.15;;;12.70;91.60;;;;;;5113348;28;20020;-76
2024/02/16 08:56:12;;;;;;;2.03;1.13;;;12.70;91.50;;;;;;5113035;28;20034;-77
2024/02/16 08:58:38;;;;;;;3.28;1.10;;;12.70;91.60;;;;;;5111801;28;20023;-76
2024/02/16 09:01:04;;;;;;;2.72;1.05;;;12.60;91.50;;;;;;5113644;28;20108;-76
2024/02/16 09:03:32;;;;;;;2.10;1.00;;;12.70;91.50;;;;;;5112403;28;20032;-77
2024/02/16 09:05:58;;;;;;;3.17;1.20;;;12.70;91.50;;;;;;5113986;28;20015;-77
2024/02/16 09:08:25;;;;;;;3.40;1.20;;;12.70;91.50;;;;;;5114138;28;20104;-75
2024/02/16 09:10:50;;;;;;;2.45;1.10;;;12.70;91.50;;;;;;5114254;28;20102;-76
2024/02/16 09:13:16;;;;;;;2.22;1.10;;;12.70;91.50;;;;;;5113903;28;20066;-77
2024/02/16 09:15:41;;;;;;;2.33;1.02;;;12.70;91.50;;;;;;5113461;28;20024;-77
2024/02/16 09:18:07;;;;;;;2.20;1.08;;;12.70;91.50;;;;;;5113375;28;20076;-77
2024/02/16 09:20:32;;;;;;;2.63;1.10;;;12.70;91.50;;;;;;5113724;28;20098;-76
2024/02/16 09:22:58;;;;;;;2.22;1.13;;;12.70;91.50;;;;;;5111907;28;20023;-76
2024/02/16 09:25:24;;;;;;;2.92;1.20;;;12.70;91.50;;;;;;5111794;28;20033;-78
2024/02/16 09:27:49;;;;;;;3.40;1.10;;;12.70;91.50;;;;;;5113814;28;20030;-76
2024/02/16 09:30:15;;;;;;;2.28;1.10;;;12.70;91.50;;;;;;5111746;28;20087;-78
2024/02/16 09:32:42;;;;;;;1.70;0.95;;;12.70;91.50;;;;;;5111997;28;20027;-77
2024/02/16 09:35:08;;;;;;;2.22;0.95;;;12.70;91.50;;;;;;5111762;28;20047;-76
2024/02/16 09:37:34;;;;;;;2.58;1.20;;;12.80;91.40;;;;;;5111632;28;20024;-75
2024/02/16 09:39:59;;;;;;;2.72;1.20;;;12.80;91.40;;;;;;5113035;28;20501;-76
2024/02/16 09:42:26;;;;;;;1.83;0.90;;;12.80;91.40;;;;;;5111717;28;20122;-78
2024/02/16 09:44:54;;;;;;;2.38;0.93;;;12.80;91.40;;;;;;5111668;28;20055;-77
2024/02/16 09:47:21;;;;;;;3.63;1.10;;;12.80;91.40;;;;;;5112475;28;20476;-76
2024/02/16 09:49:47;;;;;;;2.95;1.10;;;12.70;91.40;;;;;;5111244;28;20618;-76
2024/02/16 09:52:13;;;;;;;1.77;0.90;;;12.80;91.40;;;;;;5112454;28;20035;-76
2024/02/16 09:54:39;;;;;;;1.77;0.90;;;12.80;91.40;;;;;;5112173;28;20391;-75
2024/02/16 09:57:05;;;;;;;2.83;1.00;;;12.80;91.40;;;;;;5112378;28;20031;-77
2024/02/16 09:59:32;;;;;;;3.50;1.20;;;12.80;91.40;;;;;;5112283;28;20032;-77
2024/02/16 10:02:04;;;;;;;6.32;1.50;;;12.80;91.50;;;;;;5110590;28;20027;-76
2024/02/16 10:04:30;;;;;;;13.98;2.10;;;12.70;91.60;;;;;;5106855;28;20034;-77
2024/02/16 10:06:57;;;;;;;3.03;1.30;;;12.70;91.60;;;;;;5126403;27;20441;-76
2024/02/16 10:09:23;;;;;;;4.47;1.20;;;12.80;91.60;;;;;;5109188;28;20039;-77
2024/02/16 10:11:49;;;;;;;12.57;2.20;;;12.80;91.60;;;;;;5109060;28;20033;-77
2024/02/16 10:14:14;;;;;;;10.00;1.75;;;12.70;91.60;;;;;;5110998;28;20027;-76
2024/02/16 10:16:40;;;;;;;6.22;1.40;;;12.80;91.50;;;;;;5109106;28;20027;-76
2024/02/16 10:19:10;;;;;;;4.50;1.33;;;12.80;91.50;;;;;;5110464;28;20041;-75
2024/02/16 10:21:35;;;;;;;6.25;1.33;;;12.80;91.50;;;;;;5110715;28;20026;-76
2024/02/16 10:24:05;;;;;;;9.50;1.83;;;12.80;91.40;;;;;;5112116;28;20023;-78
2024/02/16 10:26:31;;;;;;;5.15;1.50;;;12.80;91.40;;;;;;5111171;28;20081;-77
2024/02/16 10:28:57;;;;;;;6.45;1.40;;;12.80;91.40;;;;;;5110891;28;20028;-77
2024/02/16 10:31:28;;;;;;;5.60;1.27;;;12.80;91.40;;;;;;5110435;28;20418;-76
2024/02/16 10:33:58;;;;;;;6.40;1.88;;;12.90;91.30;;;;;;5110447;28;20458;-75
2024/02/16 10:36:26;;;;;;;5.90;2.00;;;12.90;91.20;;;;;;5111723;28;20031;-77
2024/02/16 10:38:53;;;;;;;7.15;1.70;;;12.90;91.20;;;;;;5110746;28;20441;-77
2024/02/16 10:41:20;;;;;;;6.85;1.60;;;13.00;91.20;;;;;;5110289;28;20495;-76
2024/02/16 10:43:48;;;;;;;4.35;1.42;;;13.00;91.10;;;;;;5110604;28;20038;-75
2024/02/16 10:46:17;;;;;;;3.70;1.30;;;13.00;91.00;;;;;;5110083;28;20066;-76
2024/02/16 10:48:42;;;;;;;3.92;1.25;;;13.10;91.10;;;;;;5110541;28;20492;-78
2024/02/16 10:51:11;;;;;;;6.30;1.55;;;13.00;91.00;;;;;;5110661;28;20301;-77
2024/02/16 10:53:37;;;;;;;5.30;1.40;;;13.00;91.00;;;;;;5110472;28;20065;-76
2024/02/16 10:56:03;;;;;;;3.97;1.33;;;13.00;91.10;;;;;;5098531;28;20551;-76
2024/02/16 10:58:29;;;;;;;4.47;1.40;;;13.00;91.20;;;;;;5102667;28;20491;-75
2024/02/16 11:00:56;;;;;;;6.10;1.58;;;13.00;91.20;;;;;;5114564;28;20023;-76
2024/02/16 11:03:26;;;;;;;4.55;1.27;;;13.00;91.20;;;;;;5110460;28;20063;-75
2024/02/16 11:05:52;;;;;;;3.42;1.25;;;13.00;91.20;;;;;;5111697;28;20023;-78
2024/02/16 11:08:26;;;;;;;5.47;1.70;;;12.90;91.20;;;;;;5113083;28;20028;-77
2024/02/16 11:11:00;;;;;;;3.25;1.30;;;13.00;91.30;;;;;;5111461;28;20038;-76
2024/02/16 11:13:27;;;;;;;3.10;1.50;;;12.90;91.30;;;;;;5109362;28;20061;-76
2024/02/16 11:15:59;;;;;;;3.95;1.40;;;12.90;91.20;;;;;;5110185;28;20028;-76
2024/02/16 11:18:25;;;;;;;;;;;12.90;91.30;;;;;;5110363;28;20081;-77
2024/02/16 11:20:54;;;;;;;3.78;1.40;;;13.00;91.30;;;;;;5111876;28;19904;-78
2024/02/16 11:23:27;;;;;;;4.43;1.35;;;13.00;91.30;;;;;;5111439;28;20016;-76
2024/02/16 11:25:52;;;;;;;3.83;1.23;;;13.00;91.30;;;;;;5111503;28;20078;-77
2024/02/16 11:28:18;;;;;;;4.60;1.30;;;13.00;91.30;;;;;;5110164;28;20496;-76
2024/02/16 11:30:44;;;;;;;3.20;1.25;;;12.90;91.30;;;;;;5109714;28;20020;-76
2024/02/16 11:33:12;;;;;;;4.18;1.58;;;13.00;91.30;;;;;;5110823;28;20099;-76
2024/02/16 11:35:38;;;;;;;4.63;1.30;;;13.00;91.30;;;;;;5109622;28;20032;-77
2024/02/16 11:38:05;;;;;;;4.15;1.27;;;13.00;91.40;;;;;;5111086;28;20019;-76
2024/02/16 11:40:30;;;;;;;3.13;1.30;;;13.00;91.30;;;;;;5109858;28;20027;-76
2024/02/16 11:43:00;;;;;;;3.65;1.50;;;13.00;91.40;;;;;;5111016;28;20031;-76
2024/02/16 11:45:26;;;;;;;4.47;1.45;;;12.90;91.40;;;;;;5111479;28;20073;-76
2024/02/16 11:48:02;;;;;;;3.97;1.30;;;13.00;91.40;;;;;;5113130;28;20090;-76
2024/02/16 11:50:27;;;;;;;3.50;1.65;;;12.90;91.40;;;;;;5111930;28;20034;-77
2024/02/16 11:52:54;;;;;;;4.00;1.38;;;12.90;91.40;;;;;;5111698;28;20392;-78
2024/02/16 11:55:20;;;;;;;5.18;1.30;;;12.90;91.40;;;;;;5111425;28;20027;-77
2024/02/16 11:57:50;;;;;;;3.20;1.30;;;12.90;91.40;;;;;;5112665;28;20020;-77
2024/02/16 12:00:16;;;;;;;4.97;1.52;;;12.90;91.40;;;;;;5116010;28;20016;-77
2024/02/16 12:02:41;;;;;;;6.43;2.03;;;12.90;91.40;;;;;;5115716;28;20042;-76
2024/02/16 12:05:07;;;;;;;4.50;1.40;;;12.90;91.40;;;;;;5114497;28;20028;-75
2024/02/16 12:07:36;;;;;;;3.63;1.63;;;12.90;91.40;;;;;;5115355;28;20080;-76
2024/02/16 12:10:05;;;;;;;3.92;1.17;;;12.90;91.40;;;;;;5116266;28;20042;-76
2024/02/16 12:12:32;;;;;;;3.13;1.40;;;12.90;91.40;;;;;;5114805;28;20035;-76
2024/02/16 12:14:58;;;;;;;3.17;1.40;;;12.90;91.30;;;;;;5111526;28;20084;-76
2024/02/16 12:17:24;;;;;;;3.05;1.30;;;12.90;91.40;;;;;;5114917;28;20740;-76
2024/02/16 12:19:51;;;;;;;3.45;1.30;;;12.90;91.40;;;;;;5115227;28;20092;-78
2024/02/16 12:22:23;;;;;;;3.75;1.50;;;12.90;91.40;;;;;;5113824;28;20024;-77
2024/02/16 12:24:50;;;;;;;3.30;1.50;;;12.90;91.40;;;;;;5115493;27;20027;-77
2024/02/16 12:27:16;;;;;;;2.40;1.20;;;12.90;91.40;;;;;;5115239;28;20103;-76
2024/02/16 12:29:41;;;;;;;3.10;1.23;;;12.90;91.40;;;;;;5112655;28;20123;-78
2024/02/16 12:32:09;;;;;;;3.45;1.50;;;12.90;91.30;;;;;;5113792;28;20028;-75
2024/02/16 12:34:38;;;;;;;3.10;1.30;;;13.00;91.40;;;;;;5114595;28;20035;-77
2024/02/16 12:37:07;;;;;;;3.83;1.35;;;12.90;91.30;;;;;;5113768;28;20039;-77
2024/02/16 12:39:34;;;;;;;2.67;1.40;;;12.90;91.30;;;;;;5115006;28;20043;-76
2024/02/16 12:41:59;;;;;;;3.05;1.27;;;12.90;91.30;;;;;;5113932;28;20027;-76
2024/02/16 12:44:25;;;;;;;3.08;1.30;;;12.90;91.30;;;;;;5113475;28;20352;-77